Time;durP1;ratioP1;P1;durP2;ratioP2;P2;SDS_P1;SDS_P2;PMS_P1;PMS_P2;Temp;Humidity;BMP_temperature;BMP_pressure;BME280_temperature;BME280_humidity;BME280_pressure;Samples;Min_cycle;Max_cycle;Signal;HPM_P1;HPM_P2
2022/06/24 00:00:38;;;;;;;5.17;2.50;;;;;;;18.84;68.52;100047.42;1756931;82;21007;-75
2022/06/24 00:03:06;;;;;;;4.60;2.47;;;;;;;18.84;68.47;100050.20;1757187;82;21056;-76
2022/06/24 00:05:36;;;;;;;8.28;2.72;;;;;;;18.84;68.63;100049.36;1757217;81;21059;-75
2022/06/24 00:08:06;;;;;;;4.92;2.50;;;;;;;18.83;68.83;100049.91;1757289;82;20999;-77
2022/06/24 00:10:36;;;;;;;4.58;2.50;;;;;;;18.82;68.94;100049.63;1758297;81;21483;-75
2022/06/24 00:13:06;;;;;;;5.60;2.72;;;;;;;18.80;68.73;100050.98;1757156;81;21056;-75
2022/06/24 00:15:36;;;;;;;4.17;2.50;;;;;;;18.80;68.75;100049.59;1757042;81;21533;-77
2022/06/24 00:18:19;;;;;;;4.33;2.40;;;;;;;18.80;68.50;100053.20;1757014;81;21087;-74
2022/06/24 00:20:49;;;;;;;3.05;2.40;;;;;;;18.83;68.41;100053.23;1757134;82;21012;-75
2022/06/24 00:23:20;;;;;;;3.47;2.35;;;;;;;18.84;68.11;100054.91;1757073;82;21423;-74
2022/06/24 00:25:50;;;;;;;3.45;2.50;;;;;;;18.85;67.89;100061.59;1757107;82;21051;-76
2022/06/24 00:28:24;;;;;;;6.53;2.40;;;;;;;18.84;67.56;100056.30;1757243;81;21106;-75
2022/06/24 00:30:54;;;;;;;3.42;2.60;;;;;;;18.82;67.42;100057.11;1741162;82;21075;-75
2022/06/24 00:33:25;;;;;;;3.87;2.40;;;;;;;18.82;67.40;100054.34;1749572;81;21071;-75
2022/06/24 00:35:58;;;;;;;5.40;2.37;;;;;;;18.84;67.24;100059.92;1744103;82;21052;-76
2022/06/24 00:38:36;;;;;;;2.87;2.52;;;;;;;18.87;67.50;100061.36;1743848;82;21041;-79
2022/06/24 00:41:13;;;;;;;3.92;2.40;;;;;;;18.88;67.51;100058.88;1743675;81;21286;-79
2022/06/24 00:43:44;;;;;;;2.77;2.52;;;;;;;18.89;67.87;100050.84;1743768;82;21048;-78
2022/06/24 00:46:26;;;;;;;7.00;2.70;;;;;;;18.88;67.87;100048.61;1743731;82;21730;-76
2022/06/24 00:48:58;;;;;;;4.08;2.72;;;;;;;18.85;68.55;100045.48;1744026;82;21004;-75
2022/06/24 00:51:38;;;;;;;3.92;2.42;;;;;;;18.80;69.08;100035.72;1743977;82;21020;-73
2022/06/24 00:54:09;;;;;;;3.98;2.58;;;;;;;18.77;69.45;100051.50;1743831;81;20992;-71
2022/06/24 00:56:38;;;;;;;7.42;2.80;;;;;;;18.75;70.01;100053.70;1743574;81;21302;-71
2022/06/24 00:59:10;;;;;;;4.10;2.98;;;;;;;18.67;70.48;100037.80;1743706;81;21036;-71
2022/06/24 01:01:43;;;;;;;4.65;2.85;;;;;;;18.64;70.54;100036.93;1744154;82;21043;-74
2022/06/24 01:04:12;;;;;;;3.98;2.75;;;;;;;18.59;71.11;100038.23;1743956;82;21079;-74
2022/06/24 01:06:44;;;;;;;3.37;2.58;;;;;;;18.54;71.45;100036.78;1743729;81;21024;-72
2022/06/24 01:09:13;;;;;;;4.45;2.83;;;;;;;18.52;72.05;100041.75;1743556;81;21027;-73
2022/06/24 01:11:43;;;;;;;8.03;3.02;;;;;;;18.48;72.64;100046.14;1743867;81;21016;-74
2022/06/24 01:14:12;;;;;;;7.55;3.27;;;;;;;18.45;72.96;100063.30;1743966;82;21460;-67
2022/06/24 01:16:42;;;;;;;4.55;2.58;;;;;;;18.44;73.38;100065.78;1743661;81;21063;-68
2022/06/24 01:19:14;;;;;;;5.87;2.83;;;;;;;18.40;74.02;100057.69;1743896;82;21051;-71
2022/06/24 01:21:48;;;;;;;4.17;2.90;;;;;;;18.38;74.26;100059.33;1743816;82;21047;-72
2022/06/24 01:24:21;;;;;;;4.87;2.75;;;;;;;18.39;74.77;100056.01;1744223;81;21004;-73
2022/06/24 01:26:55;;;;;;;5.10;2.87;;;;;;;18.38;75.29;100047.39;1743820;82;20980;-74
2022/06/24 01:29:25;;;;;;;4.95;3.40;;;;;;;18.35;75.64;100042.36;1743827;82;21008;-74
2022/06/24 01:31:54;;;;;;;3.75;2.98;;;;;;;18.31;76.20;100055.91;1743748;82;21031;-75
2022/06/24 01:34:23;;;;;;;6.20;2.83;;;;;;;18.30;76.58;100068.09;1743452;81;21526;-75
2022/06/24 01:36:52;;;;;;;5.25;2.90;;;;;;;18.27;76.97;100063.61;1743732;82;21482;-75
2022/06/24 01:39:21;;;;;;;6.87;2.90;;;;;;;18.25;77.28;100044.45;1743641;82;21012;-71
2022/06/24 01:41:51;;;;;;;4.40;3.00;;;;;;;18.25;77.29;100041.68;1743992;82;21008;-73
2022/06/24 01:44:20;;;;;;;3.72;2.90;;;;;;;18.24;77.12;100032.23;1743885;81;20985;-75
2022/06/24 01:46:49;;;;;;;3.72;3.10;;;;;;;18.23;76.93;100031.39;1743786;81;21067;-73
2022/06/24 01:49:19;;;;;;;4.83;2.98;;;;;;;18.24;77.40;100028.07;1743727;82;21456;-74
2022/06/24 01:51:49;;;;;;;5.70;3.27;;;;;;;18.22;77.72;100039.97;1743598;82;21409;-74
2022/06/24 01:54:18;;;;;;;8.08;3.20;;;;;;;18.18;77.81;100034.61;1743782;82;21020;-75
2022/06/24 01:56:46;;;;;;;5.50;3.22;;;;;;;18.18;77.86;100036.00;1743898;81;21047;-75
2022/06/24 01:59:15;;;;;;;7.80;3.40;;;;;;;18.20;78.28;100035.20;1743804;82;21000;-75
2022/06/24 02:01:44;;;;;;;7.33;3.62;;;;;;;18.21;78.44;100034.97;1743723;81;21460;-76
2022/06/24 02:04:13;;;;;;;3.80;3.20;;;;;;;18.23;78.61;100035.55;1744016;82;21526;-75
2022/06/24 02:06:41;;;;;;;7.15;3.10;;;;;;;18.24;78.61;100035.00;1744113;82;21008;-75
2022/06/24 02:09:10;;;;;;;5.03;3.30;;;;;;;18.27;78.54;100040.04;1743778;81;21083;-75
2022/06/24 02:14:26;;;;;;;4.35;2.65;;;;;;;18.34;78.46;100042.07;1735191;82;21040;-77
2022/06/24 02:16:55;;;;;;;6.08;3.02;;;;;;;18.36;78.25;100038.49;1744192;82;21004;-75
2022/06/24 02:19:23;;;;;;;8.33;3.25;;;;;;;18.36;78.02;100034.33;1743741;82;21416;-76
2022/06/24 02:21:52;;;;;;;5.33;2.87;;;;;;;18.36;77.61;100028.78;1744159;82;21071;-76
2022/06/24 02:24:21;;;;;;;4.58;2.60;;;;;;;18.38;77.26;100033.52;1743932;82;21032;-76
2022/06/24 02:26:50;;;;;;;3.02;2.60;;;;;;;18.40;76.94;100037.42;1743670;82;21005;-77
2022/06/24 02:29:19;;;;;;;8.53;2.45;;;;;;;18.39;76.94;100037.98;1743916;82;21072;-77
2022/06/24 02:31:48;;;;;;;4.70;2.55;;;;;;;18.39;76.58;100036.59;1747400;82;20988;-74
2022/06/24 02:34:17;;;;;;;4.47;2.35;;;;;;;18.41;76.28;100037.17;1753236;81;21035;-77
2022/06/24 02:36:46;;;;;;;3.83;2.40;;;;;;;18.43;75.95;100039.14;1756454;81;21055;-77
2022/06/24 02:39:16;;;;;;;4.00;2.52;;;;;;;18.46;75.63;100030.84;1757012;81;21443;-76
2022/06/24 02:41:44;;;;;;;4.83;3.15;;;;;;;18.49;75.56;100030.33;1757056;81;21464;-72
2022/06/24 02:44:14;;;;;;;3.42;2.27;;;;;;;18.52;75.23;100029.81;1757348;81;20984;-76
2022/06/24 02:46:43;;;;;;;3.72;2.67;;;;;;;18.54;74.73;100035.94;1757146;80;21416;-77
2022/06/24 02:49:12;;;;;;;3.17;2.60;;;;;;;18.56;74.38;100037.91;1757055;82;21329;-76
2022/06/24 02:51:41;;;;;;;4.78;2.20;;;;;;;18.60;74.05;100041.30;1757277;81;21470;-77
2022/06/24 02:54:10;;;;;;;5.15;2.55;;;;;;;18.61;74.13;100043.00;1757161;82;21024;-76
2022/06/24 02:56:39;;;;;;;3.72;2.60;;;;;;;18.66;74.17;100039.45;1757277;81;21011;-77
2022/06/24 02:59:10;;;;;;;7.58;2.70;;;;;;;18.66;73.56;100043.06;1756884;81;21494;-76
2022/06/24 03:01:39;;;;;;;3.95;2.40;;;;;;;18.68;73.57;100045.02;1756814;80;21489;-77
2022/06/24 03:04:08;;;;;;;5.15;2.33;;;;;;;18.67;73.37;100040.58;1757220;81;21099;-77
2022/06/24 03:06:37;;;;;;;4.33;2.47;;;;;;;18.68;73.19;100038.09;1757211;81;21004;-77
2022/06/24 03:09:06;;;;;;;4.92;2.02;;;;;;;18.71;72.96;100035.34;1757092;80;21055;-76
2022/06/24 03:11:36;;;;;;;3.58;2.20;;;;;;;18.73;72.76;100035.92;1756732;82;21016;-75
2022/06/24 03:14:05;;;;;;;3.70;2.25;;;;;;;18.74;72.35;100040.37;1756948;81;21015;-75
2022/06/24 03:16:34;;;;;;;3.35;2.20;;;;;;;18.77;72.15;100037.63;1757336;81;21055;-75
2022/06/24 03:19:02;;;;;;;4.30;2.42;;;;;;;18.78;71.22;100043.47;1757051;82;21019;-76
2022/06/24 03:21:31;;;;;;;5.80;1.95;;;;;;;18.79;70.82;100039.05;1757014;82;21463;-75
2022/06/24 03:24:00;;;;;;;3.08;1.90;;;;;;;18.82;70.10;100046.01;1756831;82;21012;-74
2022/06/24 03:26:29;;;;;;;7.58;2.00;;;;;;;18.85;69.84;100045.48;1757605;82;21039;-75
2022/06/24 03:28:58;;;;;;;3.52;2.10;;;;;;;18.89;68.80;100043.90;1756974;82;21455;-76
2022/06/24 03:31:27;;;;;;;2.00;1.80;;;;;;;18.91;68.23;100048.09;1757121;80;21062;-75
2022/06/24 03:33:58;;;;;;;4.78;2.20;;;;;;;18.93;67.84;100038.11;1753126;82;21114;-76
2022/06/24 03:36:28;;;;;;;7.17;2.02;;;;;;;18.96;67.73;100052.31;1743439;82;21044;-76
2022/06/24 03:38:56;;;;;;;2.12;1.75;;;;;;;18.97;67.21;100042.05;1743920;81;21484;-76
2022/06/24 03:41:25;;;;;;;4.62;1.90;;;;;;;18.99;67.19;100046.23;1743732;81;21470;-75
2022/06/24 03:43:54;;;;;;;4.45;1.90;;;;;;;18.99;67.16;100040.68;1744358;82;20984;-76
2022/06/24 03:46:23;;;;;;;5.15;2.10;;;;;;;19.02;66.88;100041.25;1743789;81;21028;-76
2022/06/24 03:48:51;;;;;;;6.60;1.90;;;;;;;19.04;66.53;100039.89;1743440;82;21464;-75
2022/06/24 03:51:20;;;;;;;3.92;1.80;;;;;;;19.08;66.09;100038.81;1743927;82;21012;-77
2022/06/24 03:53:50;;;;;;;5.12;1.82;;;;;;;19.09;65.83;100045.50;1743518;82;21008;-75
2022/06/24 03:56:19;;;;;;;6.72;2.10;;;;;;;19.11;65.58;100044.69;1743889;82;21024;-77
2022/06/24 03:58:48;;;;;;;3.25;1.90;;;;;;;19.12;65.17;100044.97;1743895;81;21004;-76
2022/06/24 04:01:17;;;;;;;6.03;2.00;;;;;;;19.14;65.09;100046.94;1743715;81;20996;-75
2022/06/24 04:03:45;;;;;;;6.95;1.77;;;;;;;19.16;64.28;100050.84;1743657;82;21075;-74
2022/06/24 04:06:15;;;;;;;4.17;2.25;;;;;;;19.18;64.25;100050.87;1743740;82;21036;-75
2022/06/24 04:08:44;;;;;;;4.55;2.20;;;;;;;19.19;64.07;100044.21;1743976;82;21063;-76
2022/06/24 04:11:14;;;;;;;5.40;1.85;;;;;;;19.20;64.41;100047.27;1743662;82;21095;-76
2022/06/24 04:13:44;;;;;;;3.17;1.65;;;;;;;19.22;64.77;100049.23;1744177;82;21009;-76
2022/06/24 04:16:13;;;;;;;6.12;2.12;;;;;;;19.26;65.06;100050.39;1743603;82;21121;-75
2022/06/24 04:18:42;;;;;;;5.37;2.20;;;;;;;19.28;65.14;100045.41;1743801;82;21020;-77
2022/06/24 04:21:15;;;;;;;3.65;2.10;;;;;;;19.29;65.10;100049.02;1743846;81;21207;-76
2022/06/24 04:23:44;;;;;;;5.03;1.95;;;;;;;19.31;64.90;100043.48;1744024;82;21031;-76
2022/06/24 04:26:13;;;;;;;5.42;2.10;;;;;;;19.32;64.71;100039.61;1744089;82;21504;-75
2022/06/24 04:28:42;;;;;;;4.95;2.00;;;;;;;19.35;64.81;100042.96;1743999;82;21004;-76
2022/06/24 04:31:10;;;;;;;2.60;1.92;;;;;;;19.36;63.92;100045.47;1743744;81;21032;-76
2022/06/24 04:33:40;;;;;;;6.70;2.05;;;;;;;19.39;63.94;100047.73;1743673;82;21055;-75
2022/06/24 04:36:13;;;;;;;2.52;1.85;;;;;;;19.43;63.25;100051.65;1743919;81;21548;-76
2022/06/24 04:38:42;;;;;;;2.45;1.90;;;;;;;19.47;63.60;100054.73;1743784;82;21036;-75
2022/06/24 04:41:13;;;;;;;5.60;2.70;;;;;;;19.52;63.25;100051.52;1743473;81;21059;-74
2022/06/24 04:43:42;;;;;;;3.70;1.87;;;;;;;19.57;63.08;100050.72;1743902;82;21460;-76
2022/06/24 04:46:11;;;;;;;5.87;2.30;;;;;;;19.61;63.09;100054.64;1743965;81;21091;-75
2022/06/24 04:48:40;;;;;;;5.83;2.08;;;;;;;19.66;63.00;100060.80;1743870;81;21857;-76
2022/06/24 04:51:11;;;;;;;4.20;2.00;;;;;;;19.73;62.41;100062.24;1743673;82;21012;-76
2022/06/24 04:53:40;;;;;;;4.33;2.37;;;;;;;19.80;61.98;100071.75;1746198;82;21005;-74
2022/06/24 04:56:09;;;;;;;6.62;2.20;;;;;;;19.87;61.11;100062.07;1744873;82;21441;-76
2022/06/24 04:58:38;;;;;;;5.55;2.10;;;;;;;19.92;60.60;100069.61;1743703;81;21486;-76
2022/06/24 05:01:07;;;;;;;4.80;2.20;;;;;;;19.95;60.35;100068.52;1744035;82;21425;-74
2022/06/24 05:03:36;;;;;;;4.17;1.95;;;;;;;19.99;59.54;100061.03;1743718;81;21024;-75
2022/06/24 05:06:06;;;;;;;4.62;2.70;;;;;;;20.02;59.60;100076.63;1743695;82;21071;-76
2022/06/24 05:08:36;;;;;;;7.58;2.30;;;;;;;20.02;59.15;100073.02;1743584;82;21028;-75
2022/06/24 05:11:06;;;;;;;3.08;2.20;;;;;;;20.04;59.39;100077.20;1743725;82;20985;-77
2022/06/24 05:13:36;;;;;;;4.05;2.10;;;;;;;20.09;58.78;100075.84;1743985;81;21020;-73
2022/06/24 05:16:05;;;;;;;6.95;2.25;;;;;;;20.12;58.50;100080.87;1743925;81;21083;-74
2022/06/24 05:18:35;;;;;;;5.92;2.50;;;;;;;20.12;58.58;100071.69;1741793;82;21440;-77
2022/06/24 05:21:04;;;;;;;5.33;2.15;;;;;;;20.14;58.82;100071.70;1744018;81;21462;-75
2022/06/24 05:23:34;;;;;;;5.70;2.55;;;;;;;20.18;58.23;100073.42;1743483;81;21079;-75
2022/06/24 05:26:02;;;;;;;3.02;2.15;;;;;;;20.22;58.02;100077.34;1743672;81;21052;-76
2022/06/24 05:28:33;;;;;;;2.83;2.10;;;;;;;20.24;57.84;100072.34;1743748;82;21039;-74
2022/06/24 05:31:02;;;;;;;4.85;2.00;;;;;;;20.26;57.83;100078.48;1732162;82;21111;-75
2022/06/24 05:33:33;;;;;;;5.17;2.40;;;;;;;20.29;57.63;100083.50;1743599;82;21055;-75
2022/06/24 05:36:02;;;;;;;3.40;2.45;;;;;;;20.31;57.95;100081.84;1755378;81;21039;-77
2022/06/24 05:38:31;;;;;;;6.00;2.10;;;;;;;20.34;57.59;100092.44;1757069;81;21424;-74
2022/06/24 05:41:00;;;;;;;5.00;2.42;;;;;;;20.36;57.43;100088.28;1757129;81;21535;-76
2022/06/24 05:43:29;;;;;;;5.12;2.20;;;;;;;20.40;57.28;100094.17;1714955;82;21018;-75
2022/06/24 05:45:59;;;;;;;4.80;2.52;;;;;;;20.44;57.57;100089.19;1757075;82;21460;-76
2022/06/24 05:48:30;;;;;;;6.67;3.00;;;;;;;20.58;56.97;100088.98;1756872;82;21016;-75
2022/06/24 05:51:13;;;;;;;5.97;2.30;;;;;;;20.85;57.12;100090.23;1757066;82;21031;-74
2022/06/24 05:56:30;;;;;;;;;;;;;;;21.55;54.97;100087.09;1759319;82;21126;-77
2022/06/24 05:59:00;;;;;;;6.22;2.45;;;;;;;21.72;54.32;100089.89;1757050;82;20210;-75
2022/06/24 06:01:28;;;;;;;8.20;3.05;;;;;;;21.80;53.85;100085.14;1757050;82;21002;-76
2022/06/24 06:03:57;;;;;;;5.35;3.00;;;;;;;21.87;53.99;100089.61;1756964;82;21063;-77
2022/06/24 06:06:28;;;;;;;6.42;2.60;;;;;;;21.94;53.06;100088.20;1756886;81;21027;-79
2022/06/24 06:09:00;;;;;;;2.47;2.00;;;;;;;22.02;53.25;100090.98;1757338;82;21459;-76
2022/06/24 06:11:29;;;;;;;8.03;3.65;;;;;;;22.06;53.12;100092.13;1757026;80;21015;-78
2022/06/24 06:14:00;;;;;;;7.03;2.72;;;;;;;22.06;53.00;100093.52;1757234;82;21455;-76
2022/06/24 06:16:30;;;;;;;9.60;2.42;;;;;;;22.08;52.62;100096.86;1757288;82;21007;-77
2022/06/24 06:18:59;;;;;;;6.75;2.75;;;;;;;22.09;52.69;100088.22;1757303;82;21447;-77
2022/06/24 06:21:30;;;;;;;6.83;2.80;;;;;;;22.14;52.29;100091.59;1757201;81;21032;-77
2022/06/24 06:23:58;;;;;;;3.92;2.22;;;;;;;22.12;52.41;100093.27;1757130;81;21439;-78
2022/06/24 06:26:29;;;;;;;4.28;2.40;;;;;;;22.09;52.06;100088.77;1757040;81;21036;-75
2022/06/24 06:28:57;;;;;;;6.65;2.47;;;;;;;22.06;52.40;100101.89;1757189;82;21007;-75
2022/06/24 06:31:26;;;;;;;4.95;2.47;;;;;;;22.01;52.34;100095.73;1757202;82;21023;-75
2022/06/24 06:33:56;;;;;;;9.78;3.08;;;;;;;21.97;52.17;100096.02;1757266;82;21501;-76
2022/06/24 06:36:24;;;;;;;7.60;2.77;;;;;;;21.90;52.71;100096.02;1745285;82;21064;-75
2022/06/24 06:38:53;;;;;;;6.00;2.77;;;;;;;21.86;53.04;100097.14;1743774;82;21507;-77
2022/06/24 06:41:22;;;;;;;5.78;2.90;;;;;;;21.87;53.46;100104.39;1743838;81;21412;-76
2022/06/24 06:43:51;;;;;;;9.85;2.87;;;;;;;21.90;53.66;100113.59;1743920;81;21051;-76
2022/06/24 06:46:22;;;;;;;10.32;2.95;;;;;;;21.92;53.86;100114.70;1743519;81;20993;-77
2022/06/24 06:48:51;;;;;;;8.83;2.60;;;;;;;21.92;53.25;100112.75;1743987;81;21047;-76
2022/06/24 06:51:19;;;;;;;6.65;2.72;;;;;;;21.92;52.81;100113.31;1743915;82;21066;-74
2022/06/24 06:53:48;;;;;;;12.37;3.27;;;;;;;21.91;53.17;100116.66;1743969;81;21543;-78
2022/06/24 06:56:17;;;;;;;5.83;2.77;;;;;;;21.92;52.96;100117.49;1744024;81;21068;-77
2022/06/24 06:58:46;;;;;;;9.28;2.70;;;;;;;21.92;52.57;100120.28;1743914;82;21432;-77
2022/06/24 07:01:16;;;;;;;12.05;3.05;;;;;;;21.92;51.75;100118.33;1743952;82;21009;-75
2022/06/24 07:03:45;;;;;;;4.70;2.45;;;;;;;21.95;51.70;100116.94;1743799;82;21039;-77
2022/06/24 07:06:14;;;;;;;4.45;2.95;;;;;;;21.97;51.54;100111.36;1743784;82;21452;-77
2022/06/24 07:08:43;;;;;;;3.70;2.45;;;;;;;22.00;51.64;100119.72;1744045;82;21028;-78
2022/06/24 07:11:14;;;;;;;6.87;2.92;;;;;;;22.03;51.25;100120.03;1743900;81;21023;-75
2022/06/24 07:13:42;;;;;;;4.90;2.77;;;;;;;22.08;51.56;100119.19;1745486;81;21032;-76
2022/06/24 07:16:11;;;;;;;6.80;2.70;;;;;;;22.12;51.25;100120.33;1744957;81;21134;-77
2022/06/24 07:18:40;;;;;;;8.98;2.83;;;;;;;22.17;51.34;100118.93;1743740;82;21008;-75
2022/06/24 07:21:14;;;;;;;3.90;2.67;;;;;;;22.25;50.95;100122.55;1743901;81;21075;-78
2022/06/24 07:23:43;;;;;;;6.00;3.02;;;;;;;22.31;50.54;100117.80;1744083;82;20985;-77
2022/06/24 07:26:12;;;;;;;5.70;3.00;;;;;;;22.33;50.12;100126.16;1744011;82;21028;-75
2022/06/24 07:28:42;;;;;;;6.85;3.08;;;;;;;22.34;49.59;100125.60;1743808;82;21020;-78
2022/06/24 07:31:18;;;;;;;6.03;2.95;;;;;;;22.32;49.47;100122.25;1743799;82;21087;-77
2022/06/24 07:33:48;;;;;;;4.40;2.60;;;;;;;22.34;49.49;100120.02;1744308;81;21019;-77
2022/06/24 07:36:17;;;;;;;4.37;2.98;;;;;;;22.34;49.24;100118.63;1753114;82;21512;-77
2022/06/24 07:38:46;;;;;;;5.35;2.90;;;;;;;22.34;49.51;100120.85;1757180;82;21020;-78
2022/06/24 07:41:15;;;;;;;8.25;3.42;;;;;;;22.38;49.60;100123.36;1757057;82;21431;-76
2022/06/24 07:43:44;;;;;;;8.90;4.20;;;;;;;22.42;49.72;100117.48;1757360;80;21503;-77
2022/06/24 07:46:13;;;;;;;4.03;3.20;;;;;;;22.48;49.48;100125.84;1757010;82;21071;-79
2022/06/24 07:48:42;;;;;;;6.55;3.15;;;;;;;22.49;49.49;100127.52;1740302;82;21055;-77
2022/06/24 07:51:16;;;;;;;4.37;3.20;;;;;;;22.52;49.30;100121.37;1757014;82;21064;-77
2022/06/24 07:53:46;;;;;;;8.95;3.17;;;;;;;22.53;49.19;100123.88;1756798;81;21043;-75
2022/06/24 07:59:04;;;;;;;8.68;2.90;;;;;;;22.51;48.80;100133.66;1760502;80;21485;-76
2022/06/24 08:01:33;;;;;;;7.25;3.05;;;;;;;22.48;49.07;100127.24;1777515;80;21035;-78
2022/06/24 08:04:07;;;;;;;9.38;3.17;;;;;;;22.47;49.27;100130.59;1788120;80;21083;-75
2022/06/24 08:06:36;;;;;;;7.08;2.90;;;;;;;22.50;49.38;100131.42;1770671;79;21043;-76
2022/06/24 08:09:08;;;;;;;7.37;3.00;;;;;;;22.52;49.23;100131.14;1770035;80;21049;-76
2022/06/24 08:11:39;;;;;;;9.73;3.00;;;;;;;22.53;49.13;100131.42;1770326;80;21018;-78
2022/06/24 08:14:10;;;;;;;8.40;3.75;;;;;;;22.53;49.25;100123.05;1780578;80;21016;-75
2022/06/24 08:16:43;;;;;;;8.58;4.03;;;;;;;22.58;49.22;100120.23;1788224;79;21019;-73
2022/06/24 08:19:14;;;;;;;9.18;3.87;;;;;;;22.62;48.99;100117.15;1788081;80;21028;-76
2022/06/24 08:21:42;;;;;;;6.30;3.45;;;;;;;22.68;49.07;100117.41;1788272;80;20996;-77
2022/06/24 08:24:13;;;;;;;7.90;3.60;;;;;;;22.71;48.63;100115.44;1788131;80;21452;-77
2022/06/24 08:26:42;;;;;;;7.17;3.00;;;;;;;22.76;48.79;100116.84;1787704;80;21424;-76
2022/06/24 08:29:11;;;;;;;4.00;3.00;;;;;;;22.82;48.29;100118.53;1788227;79;21047;-77
2022/06/24 08:31:39;;;;;;;4.25;2.85;;;;;;;22.89;48.29;100118.23;1764152;80;21074;-77
2022/06/24 08:34:09;;;;;;;4.80;3.00;;;;;;;22.97;48.13;100124.05;1757099;82;21007;-76
2022/06/24 08:36:39;;;;;;;8.83;3.20;;;;;;;23.05;47.94;100119.83;1753286;82;21039;-77
2022/06/24 08:39:08;;;;;;;5.55;3.15;;;;;;;23.18;47.75;100119.20;1751568;80;21034;-77
2022/06/24 08:41:39;;;;;;;7.55;3.37;;;;;;;23.34;47.25;100120.78;1751832;82;21000;-75
2022/06/24 08:44:13;;;;;;;11.73;3.47;;;;;;;23.61;46.70;100115.34;1751896;81;21062;-78
2022/06/24 08:46:42;;;;;;;7.00;3.98;;;;;;;23.93;45.83;100104.45;1715459;82;21345;-74
2022/06/24 08:49:12;;;;;;;6.53;3.35;;;;;;;24.30;44.58;100105.27;1715560;83;21427;-76
2022/06/24 08:51:42;;;;;;;6.28;2.85;;;;;;;24.72;44.15;100113.52;1751430;82;21464;-76
2022/06/24 08:54:10;;;;;;;5.03;3.17;;;;;;;25.02;43.45;100105.31;1715594;82;21015;-76
2022/06/24 08:56:41;;;;;;;9.70;3.30;;;;;;;25.22;42.96;100112.61;1754095;80;21062;-76
2022/06/24 08:59:10;;;;;;;6.92;3.30;;;;;;;25.38;43.06;100111.86;1764837;80;21010;-76
2022/06/24 09:01:41;;;;;;;8.45;3.52;;;;;;;25.50;42.52;100101.84;1764418;81;21035;-74
2022/06/24 09:04:10;;;;;;;4.03;3.17;;;;;;;25.58;42.74;100097.52;1769395;79;21451;-76
2022/06/24 09:06:40;;;;;;;4.50;3.30;;;;;;;25.64;41.95;100099.67;1748403;82;21578;-74
2022/06/24 09:09:10;;;;;;;5.62;2.80;;;;;;;25.72;41.91;100101.81;1751682;82;21555;-76
2022/06/24 09:11:40;;;;;;;5.42;3.33;;;;;;;25.81;40.90;100101.38;1748174;82;21051;-75
2022/06/24 09:14:09;;;;;;;8.58;3.40;;;;;;;25.82;41.30;100094.63;1752042;82;21515;-75
2022/06/24 09:16:37;;;;;;;3.77;2.87;;;;;;;25.87;41.57;100092.56;1748276;82;21075;-74
2022/06/24 09:19:09;;;;;;;7.97;3.17;;;;;;;25.96;41.07;100087.09;1750625;82;21079;-76
2022/06/24 09:21:41;;;;;;;7.65;4.08;;;;;;;26.12;41.14;100085.70;1698270;82;21424;-75
2022/06/24 09:24:11;;;;;;;7.45;3.30;;;;;;;26.36;40.55;100079.11;1752139;82;21027;-76
2022/06/24 09:26:42;;;;;;;4.47;3.05;;;;;;;26.58;39.64;100078.39;1748394;82;21028;-78
2022/06/24 09:29:16;;;;;;;4.12;3.20;;;;;;;26.69;38.63;100081.29;1753867;82;21071;-77
2022/06/24 09:31:45;;;;;;;5.47;3.05;;;;;;;26.70;37.67;100082.95;1725283;82;21011;-78
2022/06/24 09:34:16;;;;;;;6.78;3.40;;;;;;;26.67;36.72;100068.13;1782966;80;21436;-78
2022/06/24 09:36:47;;;;;;;5.58;3.30;;;;;;;26.61;37.52;100065.95;1786509;80;21032;-78
2022/06/24 09:39:16;;;;;;;5.35;2.98;;;;;;;26.64;37.58;100060.28;1788579;80;21051;-79
2022/06/24 09:41:50;;;;;;;4.80;3.00;;;;;;;26.71;36.75;100067.75;1786602;80;21109;-78
2022/06/24 09:44:20;;;;;;;5.80;3.33;;;;;;;26.71;37.34;100065.77;1788098;80;20980;-76
2022/06/24 09:47:05;;;;;;;5.03;3.10;;;;;;;26.71;37.43;100070.56;1787972;80;21035;-77
2022/06/24 09:49:34;;;;;;;5.00;3.10;;;;;;;26.70;37.23;100075.92;1788222;79;21148;-77
2022/06/24 09:52:04;;;;;;;8.20;3.02;;;;;;;26.63;36.92;100074.91;1788094;79;21035;-75
2022/06/24 09:54:33;;;;;;;5.85;3.50;;;;;;;26.53;36.61;100070.33;1788015;80;21050;-76
2022/06/24 09:57:04;;;;;;;6.55;3.58;;;;;;;26.40;36.71;100072.56;1770675;80;21497;-76
2022/06/24 10:02:24;;;;;;;;;;;;;;;26.12;37.08;100063.23;1776302;80;21004;-74
2022/06/24 10:04:54;;;;;;;6.67;3.90;;;;;;;25.99;37.60;100062.60;1778121;80;20864;-74
2022/06/24 10:07:25;;;;;;;9.30;3.75;;;;;;;25.94;38.09;100071.69;1780455;80;21031;-74
2022/06/24 10:09:57;;;;;;;8.85;4.10;;;;;;;25.93;38.41;100063.84;1773412;79;21063;-75
2022/06/24 10:12:25;;;;;;;5.62;3.40;;;;;;;25.95;38.17;100062.95;1720880;83;21074;-76
2022/06/24 10:14:57;;;;;;;9.03;3.58;;;;;;;25.98;38.36;100063.74;1698249;82;21055;-74
2022/06/24 10:17:27;;;;;;;7.78;3.00;;;;;;;25.97;37.61;100067.70;1692471;83;21058;-74
2022/06/24 10:19:58;;;;;;;6.40;3.50;;;;;;;25.96;37.47;100066.59;1708687;82;21427;-75
2022/06/24 10:22:42;;;;;;;6.95;3.40;;;;;;;26.00;37.64;100065.67;1692206;85;21134;-72
2022/06/24 10:25:13;;;;;;;5.67;3.12;;;;;;;26.10;37.60;100057.66;1721292;83;21035;-73
2022/06/24 10:28:05;;;;;;;7.42;3.60;;;;;;;26.15;37.36;100065.99;1682466;84;21063;-74
2022/06/24 10:30:45;;;;;;;6.10;3.20;;;;;;;26.17;37.81;100061.73;1717494;83;21507;-77
2022/06/24 10:33:19;;;;;;;4.90;3.00;;;;;;;26.21;37.62;100061.37;1717785;83;21040;-72
2022/06/24 10:36:00;;;;;;;7.28;3.15;;;;;;;26.25;37.08;100052.33;1713822;83;21076;-74
2022/06/24 10:38:40;;;;;;;7.83;3.92;;;;;;;26.27;37.26;100055.66;1700791;84;21036;-75
2022/06/24 10:41:11;;;;;;;4.70;3.08;;;;;;;26.28;36.96;100053.11;1708025;84;21072;-75
2022/06/24 10:43:41;;;;;;;6.55;2.90;;;;;;;26.27;37.27;100050.87;1751631;82;21051;-75
2022/06/24 10:46:18;;;;;;;5.45;3.30;;;;;;;26.28;37.14;100055.92;1751589;82;21079;-75
2022/06/24 10:48:55;;;;;;;9.70;3.20;;;;;;;26.26;37.24;100056.23;1751837;82;21494;-76
2022/06/24 10:51:28;;;;;;;6.67;3.47;;;;;;;26.21;36.46;100054.35;1751520;82;21023;-76
2022/06/24 10:54:09;;;;;;;5.78;3.17;;;;;;;26.16;36.74;100048.00;1756696;80;21010;-75
2022/06/24 10:56:47;;;;;;;11.97;3.58;;;;;;;26.09;36.72;100052.62;1785709;79;21054;-79
2022/06/24 10:59:19;;;;;;;5.55;3.20;;;;;;;26.03;36.98;100053.86;1785806;80;21026;-80
2022/06/24 11:01:50;;;;;;;3.98;3.35;;;;;;;26.03;37.24;100034.77;1785573;80;20986;-77
2022/06/24 11:04:24;;;;;;;4.17;3.30;;;;;;;26.08;37.11;100043.10;1785421;80;21705;-78
2022/06/24 11:07:15;;;;;;;7.50;3.60;;;;;;;26.11;37.10;100037.70;1785191;80;21038;-76
2022/06/24 11:09:44;;;;;;;4.35;3.25;;;;;;;26.16;36.41;100046.59;1785524;80;21481;-76
2022/06/24 11:12:31;;;;;;;3.72;3.12;;;;;;;26.17;36.66;100040.67;1785785;80;21756;-76
2022/06/24 11:15:00;;;;;;;6.03;3.17;;;;;;;26.15;36.66;100040.15;1785699;79;20991;-74
2022/06/24 11:17:30;;;;;;;7.10;3.10;;;;;;;26.12;36.60;100039.36;1785778;80;21014;-75
2022/06/24 11:20:00;;;;;;;7.15;3.00;;;;;;;26.13;36.87;100034.58;1783647;80;21482;-74
2022/06/24 11:22:31;;;;;;;4.45;2.85;;;;;;;26.18;36.52;100033.91;1782675;80;21063;-75
2022/06/24 11:25:01;;;;;;;7.58;3.02;;;;;;;26.22;36.43;100029.34;1782404;80;20988;-74
2022/06/24 11:27:36;;;;;;;6.62;3.15;;;;;;;26.28;36.71;100031.47;1782724;79;21016;-74
2022/06/24 11:30:06;;;;;;;4.80;3.22;;;;;;;26.31;36.62;100025.80;1782372;80;21035;-74
2022/06/24 11:32:58;;;;;;;5.03;3.50;;;;;;;26.33;37.21;100030.57;1752484;80;21039;-74
2022/06/24 11:35:27;;;;;;;7.53;2.67;;;;;;;26.36;37.19;100030.78;1758622;80;21107;-74
2022/06/24 11:37:58;;;;;;;4.40;3.10;;;;;;;26.32;37.17;100025.49;1775994;80;21084;-73
2022/06/24 11:40:29;;;;;;;5.80;2.95;;;;;;;26.28;37.41;100025.86;1788064;79;21519;-74
2022/06/24 11:43:11;;;;;;;4.75;2.67;;;;;;;26.30;37.27;100015.71;1787963;80;21031;-73
2022/06/24 11:45:43;;;;;;;6.55;2.77;;;;;;;26.29;37.07;100019.66;1788054;80;21008;-73
2022/06/24 11:48:16;;;;;;;3.60;2.90;;;;;;;26.29;37.24;100020.50;1786916;79;21459;-75
2022/06/24 11:50:45;;;;;;;8.90;2.50;;;;;;;26.28;36.50;100023.05;1768298;80;21019;-74
2022/06/24 11:53:16;;;;;;;6.25;3.17;;;;;;;26.27;36.73;100019.98;1769142;79;21011;-74